Wolf, WY (82844)

10:52 PM MDT on July 27, 2016 (GMT -0600)
uptown | | Change Station

Elev 4327 ft 44.96 °N, 107.33 °W | Updated 20 seconds ago

Thunderstorm
Thunderstorm
67.3 °F
Feels Like 67.3 °F
N
1.1
Wind Variable Wind from NNE
Gusts 2.5 mph

Today
High -- | Low -- °F
--% Chance of Precip.
Yesterday
High -- | Low -- °F
Precip. -- in
Pressure 30.18 in
Visibility 10.0 miles
Clouds Overcast 9000 ft
Dew Point 61 °F
Humidity 80%
Rainfall 0.00 in
Snow Depth Not available.
5:49 AM 8:40 PM
Last Quarter, 36% visible
SPECI KSHR 280436Z AUTO 28009KT 10SM TS OVC090 24/09 A3018 RMK AO2 LTG DSNT S AND NW TSB36 PRESRR T02440094
Pressure 30.18 in
Visibility 10.0 miles
Clouds Overcast 9000 ft
Dew Point 61 °F
Humidity 80%
Rainfall 0.00 in
Snow Depth Not available.
5:49 AM 8:40 PM
Last Quarter, 36% visible
SPECI KSHR 280436Z AUTO 28009KT 10SM TS OVC090 24/09 A3018 RMK AO2 LTG DSNT S AND NW TSB36 PRESRR T02440094

10-Day Weather Forecast

Almanac

Astronomy

Jul. 27, 2016 Rise Set
Actual Time
Civil Twilight
Nautical Twilight
Astronomical Twilight
Moon
Length of Visible Light
Length of Day
Tomorrow will be .
, % of the Moon is Illuminated

Today's Extremes

State Highs State Lows

Community

WunderPhotos

Upload Photos

1,928,061 photos uploaded!

WunderBlog® & News

Nearby

Air Quality

  Air Quality AQ Index Pollutant
Not available.

Snow Depth

Station Depth Elevation

Earthquake Activity

City Distance Mag. Time & Date
Minimum magnitude displayed is 2.5.

Coastal Water Temperatures

Place Temperature

Stations

Nearby Weather Stations

Station Location Temp. Windchill Dew Point Humidity Wind Precip. Elev Updated Type
                   

Watches & Warnings

There are currently no watches in effect.